Terminal Aerodrome Forecast
Issued by NWS Milwaukee/Sullivan, WI

Home | Current Version | Previous Version | Text Only | Print | Product List | Glossary On
Versions: 1 2 3 4 5 6 7 8 9 10 11 12 13 14 15 16 17 18 19 20 21 22 23 24 25 26 27 28 29 30 31 32 33 34 35 36 37 38 39 40 41 42 43 44 45 46 47 48 49 50
000
FTUS43 KMKX 220521
TAFMKE
TAF
KMKE 220521Z 2206/2312 07007KT P6SM OVC007
      TEMPO 2206/2210 3SM BR OVC006
     FM221000 14007KT 2SM BR VCSH OVC008
     FM221400 10007KT P6SM BKN010
     FM221800 06008KT P6SM BKN040
     FM230500 33004KT P6SM BKN080
     FM230800 28004KT P6SM SCT040=

USA.gov is the U.S. government's official web portal to all federal, state and local government web resources and services.